Time;durP1;ratioP1;P1;durP2;ratioP2;P2;SDS_P1;SDS_P2;PMS_P1;PMS_P2;Temp;Humidity;BMP_temperature;BMP_pressure;BME280_temperature;BME280_humidity;BME280_pressure;Samples;Min_cycle;Max_cycle;Signal;HPM_P1;HPM_P2
2023/05/10 00:01:49;;;;;;;47.83;27.77;;;13.80;99.90;;;;;;4976561;28;21238;-65
2023/05/10 00:04:14;;;;;;;45.30;26.50;;;13.60;99.90;;;;;;4993563;28;20046;-65
2023/05/10 00:06:40;;;;;;;43.08;25.60;;;13.80;99.90;;;;;;4976788;28;20034;-64
2023/05/10 00:09:07;;;;;;;44.15;28.17;;;13.70;99.90;;;;;;4980186;28;20042;-65
2023/05/10 00:11:32;;;;;;;39.90;25.85;;;13.30;99.90;;;;;;4978773;28;20042;-65
2023/05/10 00:13:58;;;;;;;50.35;28.10;;;13.50;99.90;;;;;;4980602;28;20553;-65
2023/05/10 00:16:24;;;;;;;48.75;27.15;;;13.80;99.90;;;;;;5012875;28;20108;-65
2023/05/10 00:18:49;;;;;;;49.15;28.35;;;13.70;99.90;;;;;;4982679;28;20056;-64
2023/05/10 00:21:15;;;;;;;55.25;30.02;;;13.30;99.90;;;;;;5015054;28;20038;-64
2023/05/10 00:23:41;;;;;;;49.63;30.08;;;13.70;99.90;;;;;;4962732;28;20080;-65
2023/05/10 00:26:06;;;;;;;48.72;25.70;;;13.60;99.90;;;;;;4962816;28;20049;-64
2023/05/10 00:28:32;;;;;;;46.80;27.73;;;13.60;99.90;;;;;;4981001;28;20041;-64
2023/05/10 00:30:58;;;;;;;50.88;29.23;;;13.80;99.90;;;;;;5014567;28;20057;-65
2023/05/10 00:33:24;;;;;;;43.90;28.08;;;13.70;99.90;;;;;;4979170;28;20034;-64
2023/05/10 00:35:49;;;;;;;39.78;26.05;;;13.30;99.90;;;;;;4961357;28;20126;-65
2023/05/10 00:38:15;;;;;;;33.60;23.02;;;13.70;99.90;;;;;;4979908;28;20050;-65
2023/05/10 00:40:41;;;;;;;29.75;21.50;;;13.30;99.90;;;;;;4993784;28;20865;-65
2023/05/10 00:43:07;;;;;;;22.55;19.83;;;13.80;99.90;;;;;;4981073;28;20555;-65
2023/05/10 00:45:33;;;;;;;22.13;19.73;;;13.20;99.90;;;;;;4977274;28;20112;-65
2023/05/10 00:48:03;;;;;;;21.98;19.80;;;13.50;99.90;;;;;;4979937;28;20369;-66
2023/05/10 00:50:30;;;;;;;31.33;24.25;;;13.20;99.90;;;;;;4960410;28;20046;-65
2023/05/10 00:52:58;;;;;;;24.58;22.02;;;13.30;99.90;;;;;;4976987;28;20554;-64
2023/05/10 00:55:24;;;;;;;28.48;24.00;;;12.80;99.90;;;;;;4962789;28;20118;-64
2023/05/10 00:57:50;;;;;;;28.45;23.85;;;12.90;99.90;;;;;;4980291;28;20068;-64
2023/05/10 01:00:18;;;;;;;27.67;23.33;;;13.10;99.90;;;;;;4975574;28;20061;-63
2023/05/10 01:02:45;;;;;;;26.67;23.20;;;12.90;99.90;;;;;;4982577;28;20061;-63
2023/05/10 01:05:11;;;;;;;34.45;27.02;;;12.80;99.90;;;;;;5010057;28;20053;-63
2023/05/10 01:07:38;;;;;;;29.10;24.08;;;13.00;99.90;;;;;;4961199;28;20890;-64
2023/05/10 01:10:05;;;;;;;30.90;24.17;;;12.80;99.90;;;;;;4981485;28;20113;-63
2023/05/10 01:12:31;;;;;;;24.38;21.63;;;12.80;99.90;;;;;;5009543;28;20634;-63
2023/05/10 01:14:57;;;;;;;26.73;22.33;;;12.50;99.90;;;;;;4976799;28;20046;-63
2023/05/10 01:17:24;;;;;;;25.38;20.95;;;12.50;99.90;;;;;;4977809;28;20148;-63
2023/05/10 01:19:50;;;;;;;28.63;22.45;;;12.50;99.90;;;;;;4991295;28;20144;-63
2023/05/10 01:22:50;;;;;;;27.05;21.67;;;12.30;99.90;;;;;;4979542;28;20548;-62
2023/05/10 01:25:41;;;;;;;31.95;24.13;;;12.30;99.90;;;;;;4962665;28;20053;-63
2023/05/10 01:28:19;;;;;;;28.48;22.77;;;12.50;99.90;;;;;;5010016;28;20128;-63
2023/05/10 01:31:14;;;;;;;30.52;23.70;;;12.60;99.90;;;;;;4978566;28;20862;-64
2023/05/10 01:34:09;;;;;;;37.42;25.38;;;12.50;99.90;;;;;;4963215;28;20042;-63
2023/05/10 01:36:52;;;;;;;34.28;25.00;;;12.70;99.90;;;;;;4977813;28;20234;-62
2023/05/10 01:39:38;;;;;;;36.50;26.70;;;12.30;99.90;;;;;;4992688;28;21146;-63
2023/05/10 01:42:10;;;;;;;40.05;27.02;;;12.50;99.90;;;;;;5010867;28;20129;-63
2023/05/10 01:44:41;;;;;;;34.33;25.52;;;12.50;99.90;;;;;;4976971;28;20047;-63
2023/05/10 01:47:17;;;;;;;38.85;26.50;;;12.30;99.90;;;;;;5007016;28;20811;-64
2023/05/10 01:49:50;;;;;;;37.45;25.35;;;12.40;99.90;;;;;;4978065;28;20074;-63
2023/05/10 01:52:19;;;;;;;27.02;22.30;;;12.70;99.90;;;;;;4976954;28;20037;-64
2023/05/10 01:55:08;;;;;;;34.47;25.23;;;12.80;99.90;;;;;;4976099;28;20147;-64
2023/05/10 01:57:39;;;;;;;37.95;24.63;;;12.20;99.90;;;;;;4979049;28;20704;-63
2023/05/10 02:00:08;;;;;;;33.63;23.83;;;12.40;99.90;;;;;;4971415;28;20061;-63
2023/05/10 02:02:36;;;;;;;33.35;23.98;;;12.20;99.90;;;;;;4962260;28;20049;-64
2023/05/10 02:05:05;;;;;;;25.42;19.52;;;12.50;99.90;;;;;;4979827;28;20730;-63
2023/05/10 02:07:34;;;;;;;30.90;22.17;;;12.50;99.90;;;;;;4997159;28;20524;-64
2023/05/10 02:10:01;;;;;;;37.75;24.08;;;12.60;99.90;;;;;;4977710;28;20097;-64
2023/05/10 02:12:29;;;;;;;25.70;20.45;;;12.50;99.90;;;;;;4975925;28;20615;-63
2023/05/10 02:14:56;;;;;;;27.30;21.50;;;12.20;99.90;;;;;;5012932;28;20042;-64
2023/05/10 02:17:24;;;;;;;27.83;20.73;;;12.50;99.90;;;;;;4975359;28;20042;-64
2023/05/10 02:19:53;;;;;;;27.05;20.08;;;12.50;99.90;;;;;;4976029;28;20053;-64
2023/05/10 02:22:20;;;;;;;34.15;22.55;;;12.20;99.90;;;;;;4978111;28;20061;-64
2023/05/10 02:24:48;;;;;;;28.60;20.30;;;12.10;99.90;;;;;;4965436;28;20052;-64
2023/05/10 02:27:15;;;;;;;26.27;21.13;;;12.60;99.90;;;;;;4974225;28;20050;-64
2023/05/10 02:29:41;;;;;;;25.48;19.85;;;12.50;99.90;;;;;;4974618;28;20077;-63
2023/05/10 02:32:10;;;;;;;31.58;22.67;;;12.20;99.90;;;;;;4964996;28;20125;-63
2023/05/10 02:34:36;;;;;;;25.40;21.17;;;12.20;99.90;;;;;;4975637;28;20040;-64
2023/05/10 02:37:03;;;;;;;24.88;19.80;;;12.10;99.90;;;;;;4978752;28;20149;-64
2023/05/10 02:39:31;;;;;;;26.95;20.70;;;12.10;99.90;;;;;;4976630;28;20117;-63
2023/05/10 02:41:58;;;;;;;27.60;20.23;;;12.00;99.90;;;;;;4975387;28;20124;-64
2023/05/10 02:44:24;;;;;;;27.30;20.40;;;12.30;99.90;;;;;;4960227;28;21023;-64
2023/05/10 02:46:50;;;;;;;27.13;21.65;;;12.50;99.90;;;;;;4965392;28;20038;-64
2023/05/10 02:49:16;;;;;;;32.67;23.52;;;12.50;99.90;;;;;;4974612;28;20984;-63
2023/05/10 02:51:47;;;;;;;29.38;21.30;;;12.10;99.90;;;;;;4999350;28;20740;-63
2023/05/10 02:54:18;;;;;;;29.75;21.75;;;12.30;99.90;;;;;;4977037;28;20060;-63
2023/05/10 02:56:54;;;;;;;32.03;22.45;;;12.50;99.90;;;;;;4957420;28;20056;-64
2023/05/10 02:59:20;;;;;;;31.27;22.02;;;12.50;99.90;;;;;;4976714;28;20161;-63
2023/05/10 03:01:46;;;;;;;29.92;21.17;;;12.40;99.90;;;;;;5012181;28;20068;-65
2023/05/10 03:04:11;;;;;;;35.38;23.77;;;12.00;99.90;;;;;;4957289;28;21202;-63
2023/05/10 03:06:37;;;;;;;27.30;20.20;;;12.30;99.90;;;;;;4958512;28;20116;-64
2023/05/10 03:09:03;;;;;;;34.45;23.55;;;12.40;99.90;;;;;;4973842;28;20531;-64
2023/05/10 03:11:32;;;;;;;32.55;22.48;;;12.40;99.90;;;;;;4990522;28;20042;-63
2023/05/10 03:14:34;;;;;;;28.90;21.73;;;12.00;99.90;;;;;;4980107;28;20049;-63
2023/05/10 03:17:22;;;;;;;30.70;22.88;;;12.40;99.90;;;;;;4978310;28;20040;-64
2023/05/10 03:20:03;;;;;;;36.33;21.38;;;12.10;99.90;;;;;;4943793;28;21400;-64
2023/05/10 03:22:37;;;;;;;27.67;22.15;;;11.90;99.90;;;;;;5009312;28;20804;-64
2023/05/10 03:25:06;;;;;;;28.50;22.33;;;12.40;99.90;;;;;;4978783;28;20082;-64
2023/05/10 03:27:33;;;;;;;41.75;26.48;;;12.40;99.90;;;;;;5013364;28;20125;-64
2023/05/10 03:30:01;;;;;;;32.08;23.48;;;12.30;99.90;;;;;;5014074;28;20072;-64
2023/05/10 03:32:29;;;;;;;37.95;24.55;;;12.30;99.90;;;;;;4980027;28;20501;-63
2023/05/10 03:34:54;;;;;;;31.83;23.17;;;11.90;99.90;;;;;;4984117;28;20049;-63
2023/05/10 03:37:20;;;;;;;37.58;23.52;;;12.30;99.90;;;;;;4999167;28;21815;-64
2023/05/10 03:39:46;;;;;;;32.55;23.10;;;12.20;99.90;;;;;;5006509;28;20054;-64
2023/05/10 03:42:11;;;;;;;32.50;22.40;;;12.00;99.90;;;;;;5009453;28;20041;-63
2023/05/10 03:44:41;;;;;;;31.17;22.27;;;12.30;99.90;;;;;;4975973;28;20080;-64
2023/05/10 03:47:07;;;;;;;27.80;20.35;;;11.90;99.90;;;;;;4945615;28;20465;-64
2023/05/10 03:49:32;;;;;;;36.40;23.08;;;12.30;99.90;;;;;;4977300;28;20114;-63
2023/05/10 03:51:58;;;;;;;31.00;21.52;;;12.10;99.90;;;;;;4959841;28;20053;-65
2023/05/10 03:54:23;;;;;;;40.03;23.15;;;12.00;99.90;;;;;;5011837;28;20476;-64
2023/05/10 03:56:49;;;;;;;32.17;21.17;;;11.80;99.90;;;;;;4958109;28;20073;-64
2023/05/10 03:59:15;;;;;;;32.25;21.73;;;12.30;99.90;;;;;;4981237;28;20060;-63
2023/05/10 04:01:41;;;;;;;33.22;21.58;;;12.20;99.90;;;;;;5009351;28;20805;-64
2023/05/10 04:04:06;;;;;;;29.63;20.58;;;12.10;99.90;;;;;;4978476;28;20046;-64
2023/05/10 04:06:32;;;;;;;31.80;21.42;;;12.10;99.90;;;;;;4959698;28;20571;-63
2023/05/10 04:09:00;;;;;;;37.50;23.17;;;12.30;99.90;;;;;;4973936;28;20046;-64
2023/05/10 04:11:25;;;;;;;36.25;22.50;;;12.00;99.90;;;;;;4992804;28;20125;-64
2023/05/10 04:13:51;;;;;;;32.90;20.98;;;12.10;99.90;;;;;;5010467;28;20898;-64
2023/05/10 04:16:17;;;;;;;32.78;21.20;;;12.20;99.90;;;;;;4992094;28;20731;-64
2023/05/10 04:18:42;;;;;;;34.33;21.45;;;12.20;99.90;;;;;;4946648;28;20701;-65
2023/05/10 04:21:15;;;;;;;32.83;21.10;;;12.30;99.90;;;;;;4976937;28;20592;-65
2023/05/10 04:23:41;;;;;;;39.13;22.75;;;11.80;99.90;;;;;;4987773;28;20045;-64
2023/05/10 04:26:07;;;;;;;40.67;23.20;;;11.90;99.90;;;;;;4976250;28;20045;-64
2023/05/10 04:28:33;;;;;;;37.83;23.13;;;12.20;99.90;;;;;;5008891;28;20061;-63
2023/05/10 04:31:09;;;;;;;37.92;22.92;;;12.30;99.90;;;;;;4976061;28;20046;-64
2023/05/10 04:33:35;;;;;;;34.63;22.27;;;12.30;99.90;;;;;;4977454;28;20132;-64
2023/05/10 04:36:02;;;;;;;35.83;21.13;;;12.30;99.90;;;;;;5009167;28;20107;-64
2023/05/10 04:38:28;;;;;;;38.60;23.10;;;11.90;99.90;;;;;;4990563;28;20045;-64
2023/05/10 04:40:54;;;;;;;36.72;22.52;;;11.80;99.90;;;;;;4970984;28;20537;-65
2023/05/10 04:43:20;;;;;;;43.30;23.95;;;12.10;99.90;;;;;;4972714;28;20763;-65
2023/05/10 04:45:46;;;;;;;36.55;21.17;;;12.10;99.90;;;;;;4978721;28;20046;-65
2023/05/10 04:48:12;;;;;;;36.63;21.55;;;11.70;99.90;;;;;;5009434;28;20727;-64
2023/05/10 04:50:39;;;;;;;38.22;22.70;;;11.70;99.90;;;;;;4975320;28;20042;-65
2023/05/10 04:53:05;;;;;;;36.42;21.13;;;11.90;99.90;;;;;;4970563;28;20054;-64
2023/05/10 04:55:30;;;;;;;39.42;20.55;;;12.10;99.90;;;;;;4992216;28;20445;-65
2023/05/10 04:57:57;;;;;;;35.65;19.15;;;12.20;99.90;;;;;;4989128;28;20046;-64
2023/05/10 05:00:23;;;;;;;36.97;21.25;;;11.70;99.90;;;;;;4992042;28;20088;-66
2023/05/10 05:02:49;;;;;;;42.00;22.00;;;11.80;99.90;;;;;;4977784;28;20038;-63
2023/05/10 05:05:14;;;;;;;40.85;22.48;;;11.90;99.90;;;;;;4960546;28;20611;-64
2023/05/10 05:07:40;;;;;;;34.85;18.85;;;11.80;99.90;;;;;;4994357;28;20034;-64
2023/05/10 05:10:08;;;;;;;33.42;18.13;;;11.70;99.90;;;;;;4976503;28;20042;-63
2023/05/10 05:12:34;;;;;;;33.55;17.85;;;11.70;99.90;;;;;;4957094;28;20053;-63
2023/05/10 05:15:00;;;;;;;36.80;18.60;;;12.10;99.90;;;;;;5008782;28;20100;-63
2023/05/10 05:17:26;;;;;;;38.30;19.90;;;11.70;99.90;;;;;;4955229;28;20042;-63
2023/05/10 05:19:51;;;;;;;31.80;17.65;;;12.10;99.90;;;;;;4986389;28;20038;-63
2023/05/10 05:22:19;;;;;;;37.60;19.02;;;11.80;99.90;;;;;;4934235;28;1091764;-63
2023/05/10 05:24:45;;;;;;;43.08;19.73;;;12.20;99.90;;;;;;4976239;28;20080;-64
2023/05/10 05:27:10;;;;;;;28.33;16.95;;;11.80;99.90;;;;;;4994995;28;20042;-63
2023/05/10 05:29:36;;;;;;;30.10;17.45;;;11.80;99.90;;;;;;4977678;28;20425;-63
2023/05/10 05:32:02;;;;;;;25.35;16.70;;;11.80;99.90;;;;;;4941217;28;20077;-63
2023/05/10 05:34:27;;;;;;;22.83;14.90;;;12.20;99.90;;;;;;4961871;28;20042;-64
2023/05/10 05:36:53;;;;;;;24.88;16.08;;;12.20;99.90;;;;;;4974496;28;20038;-66
2023/05/10 05:39:19;;;;;;;23.83;15.43;;;12.30;99.90;;;;;;4975234;28;20050;-64
2023/05/10 05:41:45;;;;;;;23.30;15.23;;;12.20;99.90;;;;;;4975128;28;20045;-64
2023/05/10 05:44:11;;;;;;;25.15;16.15;;;12.30;99.90;;;;;;4942426;28;20047;-64
2023/05/10 05:46:37;;;;;;;26.45;15.88;;;11.90;99.90;;;;;;4975268;28;20104;-66
2023/05/10 05:49:02;;;;;;;24.63;16.83;;;12.20;99.90;;;;;;4990830;28;20108;-64
2023/05/10 05:51:28;;;;;;;22.23;14.23;;;11.80;99.90;;;;;;4976306;28;20048;-63
2023/05/10 05:53:54;;;;;;;21.83;14.40;;;12.20;99.90;;;;;;4979592;28;20038;-64
2023/05/10 05:56:24;;;;;;;19.33;13.63;;;12.00;99.90;;;;;;5009332;28;20072;-63
2023/05/10 05:58:50;;;;;;;22.65;13.93;;;12.30;99.90;;;;;;4957677;28;20042;-64
2023/05/10 06:01:16;;;;;;;21.10;14.75;;;12.10;99.90;;;;;;4958185;28;20476;-64
2023/05/10 06:03:42;;;;;;;26.77;15.85;;;12.30;99.90;;;;;;4988096;28;20046;-63
2023/05/10 06:06:07;;;;;;;20.33;14.25;;;11.90;99.90;;;;;;4969799;28;20958;-64
2023/05/10 06:08:33;;;;;;;13.07;10.80;;;11.90;99.90;;;;;;4958721;28;20350;-65
2023/05/10 06:11:00;;;;;;;18.90;11.90;;;12.40;99.90;;;;;;4975918;28;20073;-63
2023/05/10 06:13:31;;;;;;;12.73;10.25;;;12.20;99.90;;;;;;4934146;28;20038;-63
2023/05/10 06:15:58;;;;;;;13.68;10.70;;;12.30;99.90;;;;;;4975387;28;20681;-63
2023/05/10 06:18:24;;;;;;;13.60;11.07;;;12.40;99.90;;;;;;4978998;28;20037;-64
2023/05/10 06:20:50;;;;;;;15.25;11.13;;;12.20;99.90;;;;;;4971810;28;20034;-63
2023/05/10 06:23:15;;;;;;;13.48;10.15;;;12.00;99.90;;;;;;4961258;28;20121;-63
2023/05/10 06:25:42;;;;;;;10.77;9.30;;;12.40;99.90;;;;;;4958816;28;20056;-63
2023/05/10 06:28:07;;;;;;;10.15;8.57;;;12.20;99.90;;;;;;4988891;28;20062;-63
2023/05/10 06:30:33;;;;;;;10.63;9.00;;;11.90;99.90;;;;;;4956268;28;20042;-64
2023/05/10 06:32:59;;;;;;;9.48;7.60;;;12.00;99.90;;;;;;4955954;28;20190;-64
2023/05/10 06:35:24;;;;;;;12.00;9.25;;;12.10;99.90;;;;;;4976318;28;20065;-64
2023/05/10 06:37:51;;;;;;;10.30;8.95;;;12.40;99.90;;;;;;4975114;28;20065;-64
2023/05/10 06:40:17;;;;;;;7.70;6.50;;;12.40;99.90;;;;;;4972154;28;20042;-64
2023/05/10 06:42:44;;;;;;;5.40;3.92;;;12.00;99.90;;;;;;4973883;28;20381;-65
2023/05/10 06:45:10;;;;;;;3.97;2.60;;;12.40;99.90;;;;;;4972951;28;20850;-64
2023/05/10 06:47:36;;;;;;;4.45;2.20;;;12.50;99.90;;;;;;4976310;28;20358;-65
2023/05/10 06:50:01;;;;;;;3.83;1.83;;;12.50;99.90;;;;;;4962393;28;20124;-64
2023/05/10 06:52:28;;;;;;;2.85;0.80;;;12.30;99.90;;;;;;4957759;28;20712;-66
2023/05/10 06:54:53;;;;;;;0.60;0.50;;;12.40;99.90;;;;;;5011581;28;20425;-64
2023/05/10 06:57:20;;;;;;;2.50;0.88;;;12.20;99.90;;;;;;4957747;28;20042;-64
2023/05/10 06:59:46;;;;;;;1.48;0.50;;;12.60;99.90;;;;;;4974178;28;20109;-64
2023/05/10 07:02:12;;;;;;;2.17;0.50;;;12.30;99.90;;;;;;4978583;28;20034;-64
2023/05/10 07:04:37;;;;;;;2.28;0.52;;;12.50;99.90;;;;;;4974736;28;20123;-65
2023/05/10 07:07:03;;;;;;;3.97;0.90;;;12.20;99.90;;;;;;4955816;28;20073;-64
2023/05/10 07:09:29;;;;;;;2.30;1.77;;;12.10;99.90;;;;;;4958401;28;20042;-65
2023/05/10 07:11:57;;;;;;;3.97;2.63;;;12.50;99.90;;;;;;4957170;28;20603;-64
2023/05/10 07:14:22;;;;;;;5.38;3.60;;;12.50;99.90;;;;;;4960545;28;20412;-65
2023/05/10 07:16:48;;;;;;;5.82;3.42;;;12.30;99.90;;;;;;4973157;28;20442;-64
2023/05/10 07:19:14;;;;;;;9.82;5.43;;;12.50;99.90;;;;;;4986169;28;20042;-64
2023/05/10 07:21:42;;;;;;;15.32;6.43;;;12.00;99.90;;;;;;4974761;28;20038;-64
2023/05/10 07:24:08;;;;;;;17.45;6.95;;;12.00;99.90;;;;;;4974635;28;20100;-64
2023/05/10 07:26:33;;;;;;;16.17;6.53;;;12.50;99.90;;;;;;4954757;28;20602;-64
2023/05/10 07:28:59;;;;;;;14.15;6.53;;;12.40;99.90;;;;;;4960094;28;20045;-64
2023/05/10 07:31:25;;;;;;;12.15;7.28;;;12.20;99.90;;;;;;4956960;28;20050;-63
2023/05/10 07:33:51;;;;;;;15.30;8.73;;;12.40;99.90;;;;;;4938955;28;20050;-63
2023/05/10 07:36:16;;;;;;;18.05;10.50;;;12.00;99.90;;;;;;4950096;28;20178;-64
2023/05/10 07:38:42;;;;;;;18.23;10.82;;;12.00;99.90;;;;;;4975419;28;20175;-65
2023/05/10 07:41:08;;;;;;;18.13;11.07;;;12.20;99.90;;;;;;4974373;28;20489;-64
2023/05/10 07:43:33;;;;;;;13.20;10.35;;;12.30;99.90;;;;;;4996591;28;20033;-63
2023/05/10 07:45:59;;;;;;;14.93;10.35;;;12.30;99.90;;;;;;4959047;28;20214;-63
2023/05/10 07:48:25;;;;;;;21.00;13.65;;;11.80;99.90;;;;;;4960615;28;20073;-64
2023/05/10 07:50:51;;;;;;;19.08;15.57;;;12.30;99.90;;;;;;4948295;28;20051;-64
2023/05/10 07:53:18;;;;;;;17.65;15.10;;;12.30;99.90;;;;;;4991406;28;20061;-64
2023/05/10 07:55:44;;;;;;;13.88;12.48;;;12.00;99.90;;;;;;4992356;28;20054;-65
2023/05/10 07:58:10;;;;;;;18.08;15.85;;;11.80;99.90;;;;;;4989762;28;20046;-63
2023/05/10 08:00:39;;;;;;;22.38;18.30;;;11.90;99.90;;;;;;4979476;28;20097;-64
2023/05/10 08:03:04;;;;;;;26.88;21.48;;;12.30;99.90;;;;;;4974898;28;20137;-64
2023/05/10 08:05:30;;;;;;;29.90;23.55;;;12.10;99.90;;;;;;4974207;28;20694;-64
2023/05/10 08:07:56;;;;;;;35.45;27.52;;;11.70;99.90;;;;;;4975085;28;20042;-63
2023/05/10 08:10:22;;;;;;;33.90;27.95;;;12.10;99.90;;;;;;4983171;28;20037;-63
2023/05/10 08:12:47;;;;;;;34.08;28.23;;;12.10;99.90;;;;;;4966757;28;20049;-64
2023/05/10 08:15:13;;;;;;;30.77;27.40;;;11.70;99.90;;;;;;5015223;28;20121;-64
2023/05/10 08:17:39;;;;;;;25.75;23.08;;;12.20;99.90;;;;;;4998043;28;20290;-64
2023/05/10 08:20:05;;;;;;;26.35;23.85;;;12.10;99.90;;;;;;4977806;28;20037;-64
2023/05/10 08:22:31;;;;;;;29.30;26.60;;;12.40;99.90;;;;;;4975137;28;20597;-64
2023/05/10 08:24:56;;;;;;;25.33;22.92;;;12.00;99.90;;;;;;5001961;28;20128;-64
2023/05/10 08:27:22;;;;;;;29.15;26.45;;;12.20;99.90;;;;;;4958247;28;20045;-64
2023/05/10 08:29:48;;;;;;;27.65;24.95;;;12.50;99.90;;;;;;5021913;28;20128;-63
2023/05/10 08:32:14;;;;;;;24.55;22.25;;;11.90;99.90;;;;;;4970950;28;20635;-63
2023/05/10 08:34:40;;;;;;;21.17;19.27;;;12.50;99.90;;;;;;4976363;28;20038;-63
2023/05/10 08:37:06;;;;;;;21.23;19.15;;;12.10;99.90;;;;;;4991127;28;20050;-64
2023/05/10 08:39:35;;;;;;;22.35;20.35;;;12.40;99.90;;;;;;4973284;28;20103;-62
2023/05/10 08:42:04;;;;;;;22.67;20.58;;;12.50;99.90;;;;;;4972104;28;20089;-63
2023/05/10 08:44:35;;;;;;;20.50;18.60;;;12.10;99.90;;;;;;5005968;28;20561;-63
2023/05/10 08:47:04;;;;;;;20.58;18.88;;;12.00;99.90;;;;;;5004428;28;20059;-63
2023/05/10 08:49:32;;;;;;;13.80;12.63;;;12.60;99.90;;;;;;5006305;28;20061;-63
2023/05/10 08:51:59;;;;;;;12.55;11.57;;;12.60;99.90;;;;;;4962955;28;20532;-64
2023/05/10 08:54:25;;;;;;;13.00;11.57;;;12.10;99.90;;;;;;4989090;28;20131;-64
2023/05/10 08:56:51;;;;;;;12.63;11.32;;;12.10;99.90;;;;;;4978159;28;20556;-63
2023/05/10 08:59:17;;;;;;;13.70;11.98;;;12.20;99.90;;;;;;4989166;28;20049;-64
2023/05/10 09:01:45;;;;;;;12.30;11.20;;;12.40;99.90;;;;;;4978196;28;20049;-64
2023/05/10 09:04:12;;;;;;;11.70;10.60;;;12.00;99.90;;;;;;4978504;28;20050;-63
2023/05/10 09:06:38;;;;;;;12.52;11.43;;;12.60;99.90;;;;;;4973376;28;20053;-63
2023/05/10 09:09:03;;;;;;;12.60;11.43;;;12.60;99.90;;;;;;4986844;28;20046;-63
2023/05/10 09:11:29;;;;;;;11.85;10.77;;;12.50;99.90;;;;;;4972563;28;20045;-63
2023/05/10 09:13:56;;;;;;;13.32;12.23;;;12.70;99.90;;;;;;4989563;28;20042;-63
2023/05/10 09:16:23;;;;;;;11.70;10.70;;;12.10;99.90;;;;;;4941339;28;20323;-63
2023/05/10 09:18:49;;;;;;;12.20;11.00;;;12.70;99.90;;;;;;4973025;28;20046;-63
2023/05/10 09:21:15;;;;;;;10.00;9.23;;;12.70;99.90;;;;;;4977400;28;20184;-63
2023/05/10 09:23:47;;;;;;;9.52;8.73;;;12.50;99.90;;;;;;4956839;28;20149;-62
2023/05/10 09:26:13;;;;;;;6.85;6.25;;;12.90;99.90;;;;;;4972004;28;20562;-65
2023/05/10 09:28:59;;;;;;;5.38;4.90;;;12.40;99.90;;;;;;4973352;28;20042;-62
2023/05/10 09:31:46;;;;;;;4.82;4.43;;;13.10;99.90;;;;;;5005643;28;20049;-62
2023/05/10 09:34:20;;;;;;;4.20;3.90;;;12.80;99.90;;;;;;4986482;28;20042;-63
2023/05/10 09:37:00;;;;;;;3.83;3.55;;;13.20;99.90;;;;;;4968622;28;20121;-63
2023/05/10 09:39:33;;;;;;;3.78;3.50;;;12.70;99.90;;;;;;5004021;28;20281;-62
2023/05/10 09:42:00;;;;;;;;;;;12.90;99.90;;;;;;4966751;28;20089;-62
2023/05/10 09:44:27;;;;;;;4.55;4.15;;;12.70;99.90;;;;;;4990425;28;20004;-62
2023/05/10 09:46:52;;;;;;;3.70;3.47;;;13.00;99.90;;;;;;4971892;28;20269;-62
2023/05/10 09:49:20;;;;;;;4.55;4.18;;;12.70;99.90;;;;;;4970689;28;20064;-62
2023/05/10 09:51:46;;;;;;;3.90;3.58;;;13.00;99.90;;;;;;4954887;28;20039;-62
2023/05/10 09:54:16;;;;;;;4.35;3.33;;;13.10;99.90;;;;;;4980539;28;20370;-63
2023/05/10 09:56:42;;;;;;;4.15;3.85;;;13.20;99.90;;;;;;4970821;28;20046;-62
2023/05/10 09:59:10;;;;;;;4.10;3.80;;;13.00;99.90;;;;;;4979047;28;20137;-62
2023/05/10 10:01:37;;;;;;;4.70;4.30;;;12.90;99.90;;;;;;4962666;28;20057;-63
2023/05/10 10:04:08;;;;;;;5.53;5.13;;;12.90;99.90;;;;;;4981642;28;20092;-63
2023/05/10 10:06:39;;;;;;;6.35;5.85;;;12.80;99.90;;;;;;4968358;28;20034;-62
2023/05/10 10:09:08;;;;;;;7.25;6.55;;;13.00;99.90;;;;;;4974429;28;20181;-64
2023/05/10 10:11:35;;;;;;;7.53;6.82;;;13.30;99.90;;;;;;4971811;28;20054;-63
2023/05/10 10:14:01;;;;;;;7.18;6.15;;;12.90;99.90;;;;;;4974681;28;20073;-63
2023/05/10 10:16:29;;;;;;;5.78;5.18;;;12.90;99.90;;;;;;4960116;28;20512;-63
2023/05/10 10:18:55;;;;;;;6.40;5.70;;;13.10;99.90;;;;;;4987518;28;20341;-63
2023/05/10 10:21:22;;;;;;;5.65;5.05;;;13.20;99.90;;;;;;4961057;28;21067;-63
2023/05/10 10:23:48;;;;;;;5.15;4.60;;;13.50;99.90;;;;;;4981179;28;20121;-63
2023/05/10 10:26:17;;;;;;;5.35;4.85;;;13.50;99.90;;;;;;4964129;28;20468;-62
2023/05/10 10:29:10;;;;;;;5.82;5.13;;;12.80;99.90;;;;;;4973036;28;20121;-62
2023/05/10 10:31:47;;;;;;;4.60;4.15;;;13.40;99.90;;;;;;4989046;28;20038;-63
2023/05/10 10:34:25;;;;;;;4.50;4.10;;;13.10;99.90;;;;;;4993584;28;20149;-62
2023/05/10 10:36:51;;;;;;;5.07;4.60;;;13.20;99.90;;;;;;4981861;28;20047;-64
2023/05/10 10:39:19;;;;;;;5.22;4.47;;;13.80;99.90;;;;;;5002731;28;20038;-62
2023/05/10 10:41:54;;;;;;;4.63;3.88;;;13.50;99.90;;;;;;4965707;28;20042;-62
2023/05/10 10:44:25;;;;;;;4.32;3.70;;;13.90;99.90;;;;;;4983433;28;20338;-62
2023/05/10 10:47:11;;;;;;;5.63;3.80;;;14.00;99.90;;;;;;4974903;28;20060;-63
2023/05/10 10:49:39;;;;;;;3.63;3.33;;;13.50;99.90;;;;;;4983835;28;20042;-63
2023/05/10 10:52:20;;;;;;;4.50;4.10;;;13.90;99.90;;;;;;4981011;28;20255;-63
2023/05/10 10:55:10;;;;;;;4.40;4.00;;;13.70;99.90;;;;;;4988492;28;20137;-62
2023/05/10 10:57:52;;;;;;;3.75;2.92;;;14.10;99.90;;;;;;5011820;28;20073;-66
2023/05/10 11:00:55;;;;;;;3.83;2.97;;;13.80;99.90;;;;;;4997178;28;20053;-63
2023/05/10 11:03:23;;;;;;;2.95;2.15;;;13.90;99.90;;;;;;4983011;28;20496;-63
2023/05/10 11:05:57;;;;;;;2.00;1.35;;;14.30;99.90;;;;;;4967619;28;20501;-64
2023/05/10 11:08:30;;;;;;;3.47;2.17;;;14.40;99.90;;;;;;4967029;28;20046;-62
2023/05/10 11:10:59;;;;;;;3.40;3.10;;;14.20;99.90;;;;;;4967128;28;20050;-62
2023/05/10 11:13:37;;;;;;;4.00;3.65;;;14.20;99.90;;;;;;4983000;28;20054;-62
2023/05/10 11:16:25;;;;;;;2.92;2.72;;;14.50;99.90;;;;;;4983464;28;20085;-63
2023/05/10 11:18:56;;;;;;;2.15;1.95;;;14.60;99.90;;;;;;4982212;28;20066;-62
2023/05/10 11:21:22;;;;;;;2.78;1.80;;;14.40;99.90;;;;;;4967389;28;20065;-63
2023/05/10 11:23:50;;;;;;;2.38;1.70;;;14.40;99.90;;;;;;4966441;28;20054;-61
2023/05/10 11:26:16;;;;;;;1.20;0.95;;;14.50;99.90;;;;;;4984347;28;20366;-62
2023/05/10 11:28:43;;;;;;;1.10;0.90;;;14.60;99.90;;;;;;4967559;28;20054;-64
2023/05/10 11:31:09;;;;;;;0.82;0.60;;;14.60;99.90;;;;;;4983634;28;20050;-62
2023/05/10 11:33:50;;;;;;;0.70;0.50;;;14.90;99.90;;;;;;5001914;28;20179;-63
2023/05/10 11:36:18;;;;;;;0.38;0.22;;;14.70;99.90;;;;;;5004503;28;20073;-63
2023/05/10 11:38:44;;;;;;;1.05;0.30;;;14.90;1.00;;;;;;5004693;28;20330;-65
2023/05/10 11:41:13;;;;;;;1.92;0.40;;;14.90;99.90;;;;;;5004658;28;20306;-63
2023/05/10 11:43:41;;;;;;;1.30;0.90;;;15.00;1.00;;;;;;4988448;28;20053;-63
2023/05/10 11:46:10;;;;;;;2.15;0.95;;;14.90;1.00;;;;;;4999578;28;20054;-63
2023/05/10 11:48:38;;;;;;;2.10;1.70;;;15.00;99.90;;;;;;5004892;28;20665;-63
2023/05/10 11:51:04;;;;;;;3.15;1.83;;;14.70;1.00;;;;;;4994698;28;20053;-63
2023/05/10 11:53:32;;;;;;;3.08;2.80;;;14.80;99.90;;;;;;4985113;28;20042;-63
2023/05/10 11:56:04;;;;;;;2.50;2.30;;;14.90;99.90;;;;;;4983504;28;20609;-63
2023/05/10 11:58:31;;;;;;;2.45;1.65;;;15.00;99.90;;;;;;4992334;28;20471;-64
2023/05/10 12:00:58;;;;;;;1.83;1.70;;;14.80;99.90;;;;;;4974617;28;20311;-63
2023/05/10 12:03:24;;;;;;;3.67;3.33;;;14.60;99.90;;;;;;4974183;28;20285;-63
2023/05/10 12:05:50;;;;;;;4.13;3.75;;;14.80;99.90;;;;;;4989135;28;20073;-66
2023/05/10 12:08:19;;;;;;;5.22;3.72;;;14.90;1.00;;;;;;4974175;28;20061;-63
2023/05/10 12:10:45;;;;;;;4.07;2.67;;;14.90;1.00;;;;;;4988287;28;20178;-63
2023/05/10 12:13:15;;;;;;;4.38;3.20;;;14.90;99.90;;;;;;4974624;28;20310;-64
2023/05/10 12:15:42;;;;;;;4.40;3.22;;;15.20;99.90;;;;;;4974340;28;20100;-64
2023/05/10 12:18:14;;;;;;;4.68;3.75;;;15.30;99.90;;;;;;4988427;28;20042;-64
2023/05/10 12:20:41;;;;;;;5.03;4.15;;;15.30;99.90;;;;;;4976626;28;20037;-64
2023/05/10 12:23:10;;;;;;;5.72;4.63;;;15.30;99.90;;;;;;4982572;28;20101;-63
2023/05/10 12:25:37;;;;;;;5.65;4.68;;;15.20;99.90;;;;;;4958296;28;20783;-63
2023/05/10 12:28:05;;;;;;;6.95;4.60;;;15.20;99.90;;;;;;4982651;28;20382;-64
2023/05/10 12:30:32;;;;;;;7.00;4.90;;;15.30;99.90;;;;;;4976535;28;20727;-64
2023/05/10 12:33:07;;;;;;;7.47;5.90;;;15.30;99.90;;;;;;4979314;28;20042;-64
2023/05/10 12:35:33;;;;;;;6.18;4.93;;;15.20;99.90;;;;;;4960714;28;20042;-65
2023/05/10 12:37:59;;;;;;;6.75;5.07;;;15.10;99.90;;;;;;4977459;28;21260;-64
2023/05/10 12:40:24;;;;;;;8.00;4.78;;;15.40;99.90;;;;;;4977494;28;20038;-64